Time;durP1;ratioP1;P1;durP2;ratioP2;P2;SDS_P1;SDS_P2;PMS_P1;PMS_P2;Temp;Humidity;BMP_temperature;BMP_pressure;BME280_temperature;BME280_humidity;BME280_pressure;Samples;Min_cycle;Max_cycle;Signal;HPM_P1;HPM_P2
2021/07/19 00:03:00;;;;;;;11.90;5.03;;;;;;;;;;6105161;29;20490;-66
2021/07/19 00:06:02;;;;;;;5.38;4.60;;;;;;;;;;6108091;29;20044;-65
2021/07/19 00:12:20;;;;;;;7.72;4.78;;;;;;;;;;6115208;28;20806;-65
2021/07/19 00:15:35;;;;;;;11.93;4.82;;;;;;;;;;6135292;28;20055;-67
2021/07/19 00:18:44;;;;;;;10.25;4.93;;;;;;;;;;6119664;28;20058;-66
2021/07/19 00:22:40;;;;;;;8.13;4.78;;;;;;;;;;6130929;28;20055;-66
2021/07/19 00:25:42;;;;;;;6.30;4.57;;;;;;;;;;6115687;28;20047;-66
2021/07/19 00:28:44;;;;;;;11.82;5.00;;;;;;;;;;6129887;28;20130;-67
2021/07/19 00:31:46;;;;;;;6.53;5.13;;;;;;;;;;6114806;28;20194;-68
2021/07/19 00:35:18;;;;;;;4.85;4.32;;;;;;;;;;6145887;28;20523;-67
2021/07/19 00:38:26;;;;;;;9.40;4.53;;;;;;;;;;6144495;28;20051;-66
2021/07/19 00:41:28;;;;;;;10.70;4.70;;;;;;;;;;6161573;28;20182;-65
2021/07/19 00:44:40;;;;;;;;;;;;;;;;;;;;;
2021/07/19 00:52:00;;;;;;;5.28;4.20;;;;;;;;;;6031115;29;20187;-65
2021/07/19 00:55:04;;;;;;;6.60;3.95;;;;;;;;;;6166958;28;20047;-65
2021/07/19 01:02:12;;;;;;;6.50;4.53;;;;;;;;;;6153775;28;20058;-65
2021/07/19 01:05:15;;;;;;;5.20;4.15;;;;;;;;;;6158801;28;20101;-68
2021/07/19 01:12:18;;;;;;;4.93;4.10;;;;;;;;;;6158956;28;20062;-66
2021/07/19 01:15:30;;;;;;;5.65;4.28;;;;;;;;;;6154190;28;20141;-68
2021/07/19 01:22:57;;;;;;;11.65;4.43;;;;;;;;;;6152951;28;20446;-66
2021/07/19 01:26:22;;;;;;;5.57;4.22;;;;;;;;;;6162934;28;20046;-65
2021/07/19 01:33:58;;;;;;;5.78;4.28;;;;;;;;;;6095513;28;20039;-69
2021/07/19 01:37:31;;;;;;;6.55;4.20;;;;;;;;;;6132325;28;20039;-65
2021/07/19 01:40:40;;;;;;;7.07;3.88;;;;;;;;;;6136426;28;20053;-68
2021/07/19 01:43:49;;;;;;;5.97;4.10;;;;;;;;;;6143182;28;20054;-68
2021/07/19 01:47:07;;;;;;;6.05;4.18;;;;;;;;;;6130025;28;20058;-65
2021/07/19 01:50:37;;;;;;;5.38;3.78;;;;;;;;;;6121623;28;20572;-71
2021/07/19 02:01:14;;;;;;;7.93;4.47;;;;;;;;;;6130456;28;20043;-65
2021/07/19 02:04:17;;;;;;;6.05;4.10;;;;;;;;;;6125084;28;20058;-65
2021/07/19 02:11:00;;;;;;;7.10;4.10;;;;;;;;;;6018061;29;20490;-66
2021/07/19 02:17:49;;;;;;;6.85;4.22;;;;;;;;;;6040092;28;20055;-68
2021/07/19 02:20:55;;;;;;;7.93;3.97;;;;;;;;;;6134765;28;20051;-65
2021/07/19 02:28:16;;;;;;;6.90;3.53;;;;;;;;;;6134293;28;20059;-65
2021/07/19 02:43:49;;;;;;;4.55;3.75;;;;;;;;;;6150563;28;20059;-65
2021/07/19 02:46:57;;;;;;;5.18;3.88;;;;;;;;;;6148970;28;20129;-65
2021/07/19 02:49:59;;;;;;;7.32;3.72;;;;;;;;;;6160226;28;20663;-67
2021/07/19 03:08:30;;;;;;;;;;;;;;;;;;;;;
2021/07/19 03:15:15;;;;;;;9.02;4.72;;;;;;;;;;6165853;28;20059;-70
2021/07/19 03:18:19;;;;;;;6.53;4.07;;;;;;;;;;6151142;28;20054;-66
2021/07/19 03:25:12;;;;;;;6.80;4.18;;;;;;;;;;6012559;29;20087;-74
2021/07/19 03:28:32;;;;;;;5.60;3.63;;;;;;;;;;6020273;29;20133;-65
2021/07/19 03:35:26;;;;;;;6.80;4.10;;;;;;;;;;6073017;28;20491;-67
2021/07/19 03:43:06;;;;;;;6.38;4.18;;;;;;;;;;6106400;28;20461;-67
2021/07/19 03:46:15;;;;;;;5.95;4.15;;;;;;;;;;6146499;28;20062;-66
2021/07/19 03:49:20;;;;;;;9.13;4.15;;;;;;;;;;6150175;28;20050;-65
2021/07/19 03:52:40;;;;;;;7.22;4.18;;;;;;;;;;6130959;28;20060;-69
2021/07/19 03:55:52;;;;;;;4.97;3.75;;;;;;;;;;6155781;28;20300;-65
2021/07/19 04:19:47;;;;;;;4.18;3.65;;;;;;;;;;6097655;29;20143;-65
2021/07/19 04:22:59;;;;;;;5.43;4.20;;;;;;;;;;6090709;29;20191;-67
2021/07/19 04:26:20;;;;;;;8.18;4.18;;;;;;;;;;6016978;29;20055;-65
2021/07/19 04:29:30;;;;;;;7.82;3.90;;;;;;;;;;6126141;28;20749;-66
2021/07/19 04:33:25;;;;;;;7.65;4.53;;;;;;;;;;6155398;28;20078;-66
2021/07/19 04:41:14;;;;;;;5.78;3.90;;;;;;;;;;6014830;29;20120;-71
2021/07/19 04:44:15;;;;;;;6.47;3.88;;;;;;;;;;6124935;28;20047;-65
2021/07/19 04:47:28;;;;;;;7.65;4.07;;;;;;;;;;6133945;28;20051;-70
2021/07/19 04:50:30;;;;;;;6.55;3.65;;;;;;;;;;6117776;28;20047;-70
2021/07/19 04:53:32;;;;;;;7.75;3.88;;;;;;;;;;6131888;29;20093;-67
2021/07/19 04:56:41;;;;;;;7.93;3.95;;;;;;;;;;6133208;28;20652;-66
2021/07/19 04:59:46;;;;;;;5.88;3.95;;;;;;;;;;6143114;28;20094;-65
2021/07/19 05:02:50;;;;;;;4.85;3.95;;;;;;;;;;6128705;28;20043;-65
2021/07/19 05:06:03;;;;;;;;;;;;;;;;;;;;;
2021/07/19 05:09:29;;;;;;;;;;;;;;;;;;6135750;28;20411;-66
2021/07/19 05:12:33;;;;;;;7.75;4.05;;;;;;;;;;6123597;28;20408;-65
2021/07/19 05:15:37;;;;;;;7.60;3.92;;;;;;;;;;6131478;28;20057;-68
2021/07/19 05:18:49;;;;;;;6.55;4.03;;;;;;;;;;6135250;28;20058;-67
2021/07/19 05:21:51;;;;;;;7.00;4.10;;;;;;;;;;6135737;28;20808;-68
2021/07/19 05:24:56;;;;;;;5.63;3.85;;;;;;;;;;6142737;28;20047;-65
2021/07/19 05:28:11;;;;;;;6.10;3.70;;;;;;;;;;6137169;28;20055;-66
2021/07/19 05:31:13;;;;;;;6.55;3.90;;;;;;;;;;6133232;28;20062;-65
2021/07/19 05:34:14;;;;;;;5.90;3.55;;;;;;;;;;6137026;28;20114;-67
2021/07/19 05:37:16;;;;;;;8.20;3.58;;;;;;;;;;6134793;28;20055;-66
2021/07/19 05:40:19;;;;;;;6.88;3.28;;;;;;;;;;6138037;28;20554;-68
2021/07/19 05:43:22;;;;;;;6.15;3.85;;;;;;;;;;6141416;28;20055;-67
2021/07/19 05:49:43;;;;;;;6.97;3.67;;;;;;;;;;6114140;28;20530;-65
2021/07/19 05:53:05;;;;;;;10.32;3.67;;;;;;;;;;6105074;28;20047;-66
2021/07/19 05:56:07;;;;;;;9.63;4.50;;;;;;;;;;6136374;28;20037;-65
2021/07/19 05:59:11;;;;;;;5.78;3.50;;;;;;;;;;6143895;28;20465;-66
2021/07/19 06:02:25;;;;;;;7.75;3.53;;;;;;;;;;6131462;28;20052;-65
2021/07/19 06:05:40;;;;;;;;;;;;;;;;;;;;;
2021/07/19 06:12:08;;;;;;;6.55;3.60;;;;;;;;;;6028696;29;20432;-68
2021/07/19 06:15:25;;;;;;;6.78;3.78;;;;;;;;;;6141985;28;20050;-67
2021/07/19 06:18:29;;;;;;;6.22;3.40;;;;;;;;;;6130550;28;20051;-66
2021/07/19 06:21:31;;;;;;;6.38;3.20;;;;;;;;;;6135165;28;20039;-66
2021/07/19 06:24:33;;;;;;;6.33;3.23;;;;;;;;;;6139298;28;20189;-66
2021/07/19 06:27:38;;;;;;;6.23;3.30;;;;;;;;;;6126306;28;20058;-66
2021/07/19 06:30:53;;;;;;;6.13;3.10;;;;;;;;;;6130755;28;20066;-69
2021/07/19 06:33:57;;;;;;;4.90;3.22;;;;;;;;;;6109025;28;20056;-66
2021/07/19 06:36:58;;;;;;;7.40;3.10;;;;;;;;;;6135163;28;20059;-66
2021/07/19 06:40:37;;;;;;;5.40;2.83;;;;;;;;;;6135311;28;20158;-65
2021/07/19 06:43:39;;;;;;;4.18;2.67;;;;;;;;;;6137445;28;20058;-67
2021/07/19 06:46:45;;;;;;;5.05;3.20;;;;;;;;;;6124602;28;20051;-66
2021/07/19 06:50:03;;;;;;;6.72;3.75;;;;;;;;;;6136195;28;20054;-66
2021/07/19 06:53:05;;;;;;;3.92;2.95;;;;;;;;;;6131098;28;20106;-65
2021/07/19 06:56:37;;;;;;;4.30;3.00;;;;;;;;;;6128517;28;20058;-65
2021/07/19 06:59:59;;;;;;;;;;;;;;;;;;;;;
2021/07/19 07:03:44;;;;;;;5.93;3.33;;;;;;;;;;6103697;28;20187;-66
2021/07/19 07:07:28;;;;;;;;;;;;;;;;;;;;;
2021/07/19 07:10:30;;;;;;;4.68;3.47;;;;;;;;;;6134147;28;20131;-68
2021/07/19 07:13:42;;;;;;;4.33;2.90;;;;;;;;;;6128791;28;20043;-64
2021/07/19 07:16:57;;;;;;;4.28;3.38;;;;;;;;;;6127329;28;20923;-65
2021/07/19 07:23:20;;;;;;;4.97;3.13;;;;;;;;;;6127549;28;20058;-65
2021/07/19 07:26:21;;;;;;;4.95;3.13;;;;;;;;;;6134872;28;20084;-65
2021/07/19 07:29:32;;;;;;;9.23;3.60;;;;;;;;;;6140539;28;20184;-65
2021/07/19 07:32:34;;;;;;;4.70;3.47;;;;;;;;;;6128454;28;20083;-65
2021/07/19 07:35:40;;;;;;;9.30;3.00;;;;;;;;;;6137846;28;20367;-66
2021/07/19 07:38:47;;;;;;;5.82;3.00;;;;;;;;;;6168817;28;20492;-66
2021/07/19 07:42:01;;;;;;;5.13;3.50;;;;;;;;;;6105315;28;20071;-67
2021/07/19 07:45:06;;;;;;;6.85;3.08;;;;;;;;;;6108946;29;20079;-66
2021/07/19 08:00:26;;;;;;;8.38;3.40;;;;;;;;;;5997790;29;20057;-67
2021/07/19 08:07:50;;;;;;;7.10;3.60;;;;;;;;;;6000733;29;20396;-66
2021/07/19 08:15:05;;;;;;;7.72;3.78;;;;;;;;;;5973163;29;20508;-66
2021/07/19 08:21:47;;;;;;;6.15;3.45;;;;;;;;;;6108426;28;20138;-65
2021/07/19 08:24:49;;;;;;;9.20;3.45;;;;;;;;;;6144678;28;20136;-65
2021/07/19 08:27:53;;;;;;;;;;;;;;;;;;6194612;28;20504;-65
2021/07/19 08:31:45;;;;;;;;;;;;;;;;;;;;;
2021/07/19 08:47:18;;;;;;;8.00;3.70;;;;;;;;;;6138265;28;23059;-65
2021/07/19 08:54:26;;;;;;;;;;;;;;;;;;;;;
2021/07/19 09:02:08;;;;;;;5.50;3.60;;;;;;;;;;6091145;29;20060;-65
2021/07/19 09:09:48;;;;;;;;;;;;;;;;;;;;;
2021/07/19 09:16:59;;;;;;;8.57;3.28;;;;;;;;;;6114980;28;20150;-64
2021/07/19 09:20:34;;;;;;;7.35;3.55;;;;;;;;;;6167624;28;20042;-65
2021/07/19 09:23:36;;;;;;;6.25;3.83;;;;;;;;;;6182884;28;20114;-65
2021/07/19 09:26:48;;;;;;;5.93;3.53;;;;;;;;;;6181691;28;20109;-65
2021/07/19 09:29:50;;;;;;;6.72;3.22;;;;;;;;;;6188937;28;20133;-64
2021/07/19 09:36:41;;;;;;;6.60;3.60;;;;;;;;;;6121850;28;20525;-65
2021/07/19 09:39:45;;;;;;;6.93;4.03;;;;;;;;;;6167129;28;20133;-65
2021/07/19 09:42:55;;;;;;;5.93;4.13;;;;;;;;;;6131412;28;20094;-65
2021/07/19 09:46:09;;;;;;;4.10;3.65;;;;;;;;;;6133372;28;20043;-66
2021/07/19 09:57:34;;;;;;;7.85;3.83;;;;;;;;;;5949264;29;20440;-67
2021/07/19 10:01:01;;;;;;;7.45;3.72;;;;;;;;;;6058118;28;20106;-68
2021/07/19 10:04:45;;;;;;;4.93;3.75;;;;;;;;;;6116060;28;20510;-68
2021/07/19 10:07:48;;;;;;;8.25;3.90;;;;;;;;;;6120272;28;20507;-66
2021/07/19 10:11:01;;;;;;;6.63;3.63;;;;;;;;;;6159094;28;20051;-65
2021/07/19 10:14:03;;;;;;;7.07;3.53;;;;;;;;;;6165512;28;20047;-66
2021/07/19 10:17:10;;;;;;;5.72;3.78;;;;;;;;;;6154345;28;20050;-65
2021/07/19 10:20:17;;;;;;;7.88;4.05;;;;;;;;;;6158717;28;20059;-66
2021/07/19 10:23:43;;;;;;;7.95;4.05;;;;;;;;;;6159638;28;20062;-67
2021/07/19 10:26:46;;;;;;;6.50;3.65;;;;;;;;;;6141323;28;20277;-65
2021/07/19 10:29:49;;;;;;;7.70;3.58;;;;;;;;;;6164856;28;20170;-67
2021/07/19 10:32:51;;;;;;;10.35;3.88;;;;;;;;;;6151706;28;20054;-66
2021/07/19 10:35:58;;;;;;;7.25;4.60;;;;;;;;;;6173153;28;20050;-65
2021/07/19 10:39:02;;;;;;;7.50;4.00;;;;;;;;;;6186708;28;20392;-70
2021/07/19 10:42:07;;;;;;;7.35;3.97;;;;;;;;;;6179379;28;20138;-65
2021/07/19 10:45:10;;;;;;;6.60;3.72;;;;;;;;;;6186218;28;20101;-68
2021/07/19 10:48:23;;;;;;;7.30;4.20;;;;;;;;;;6176940;28;20073;-67
2021/07/19 10:51:28;;;;;;;6.88;3.83;;;;;;;;;;6180211;28;20057;-65
2021/07/19 10:54:30;;;;;;;8.52;4.00;;;;;;;;;;6186807;28;20050;-65
2021/07/19 11:00:53;;;;;;;4.25;3.63;;;;;;;;;;6128126;28;20038;-65
2021/07/19 11:03:55;;;;;;;5.25;3.88;;;;;;;;;;6180375;28;20051;-65
2021/07/19 11:07:19;;;;;;;12.82;4.68;;;;;;;;;;6153521;28;20047;-68
2021/07/19 11:10:52;;;;;;;8.07;3.83;;;;;;;;;;6150280;28;20059;-70
2021/07/19 11:13:56;;;;;;;5.25;3.58;;;;;;;;;;6179706;28;20046;-68
2021/07/19 11:17:09;;;;;;;3.97;3.42;;;;;;;;;;6179682;28;20065;-65
2021/07/19 11:20:13;;;;;;;3.95;3.60;;;;;;;;;;6186475;28;20054;-69
2021/07/19 11:23:34;;;;;;;5.55;3.92;;;;;;;;;;6191475;28;20050;-66
2021/07/19 11:26:49;;;;;;;7.68;3.90;;;;;;;;;;6185033;28;20050;-66
2021/07/19 11:30:05;;;;;;;7.82;3.67;;;;;;;;;;6187089;28;20058;-68
2021/07/19 11:33:22;;;;;;;4.15;3.17;;;;;;;;;;6180027;28;20050;-68
2021/07/19 11:36:26;;;;;;;7.57;3.60;;;;;;;;;;6182841;28;20050;-73
2021/07/19 11:39:42;;;;;;;7.75;3.60;;;;;;;;;;6191383;28;20058;-68
2021/07/19 11:42:52;;;;;;;6.78;3.97;;;;;;;;;;6178431;28;20110;-68
2021/07/19 11:45:57;;;;;;;7.75;3.15;;;;;;;;;;6184412;28;20051;-67
2021/07/19 11:49:04;;;;;;;5.07;3.20;;;;;;;;;;6183994;28;20593;-70
2021/07/19 11:52:23;;;;;;;4.57;3.40;;;;;;;;;;6169642;28;20061;-67
2021/07/19 11:55:27;;;;;;;4.18;3.30;;;;;;;;;;6183639;28;20050;-71
2021/07/19 11:58:41;;;;;;;5.50;3.30;;;;;;;;;;6189139;28;20069;-69
2021/07/19 12:01:43;;;;;;;4.70;3.15;;;;;;;;;;6180141;28;20057;-70
2021/07/19 12:04:45;;;;;;;6.70;3.17;;;;;;;;;;6188511;28;20054;-67
2021/07/19 12:07:47;;;;;;;6.35;2.95;;;;;;;;;;6182536;28;20081;-65
2021/07/19 12:10:52;;;;;;;5.57;3.13;;;;;;;;;;6183790;28;20047;-68
2021/07/19 12:17:14;;;;;;;4.13;3.10;;;;;;;;;;6166286;28;20066;-70
2021/07/19 12:20:28;;;;;;;5.43;3.05;;;;;;;;;;6186994;28;20047;-70
2021/07/19 12:23:49;;;;;;;3.83;3.40;;;;;;;;;;6178428;28;20066;-68
2021/07/19 12:26:55;;;;;;;4.55;3.15;;;;;;;;;;6181536;28;20094;-67
2021/07/19 12:29:57;;;;;;;5.22;3.42;;;;;;;;;;6188473;28;20061;-66
2021/07/19 12:32:59;;;;;;;5.18;3.45;;;;;;;;;;6180990;28;20058;-67
2021/07/19 12:36:01;;;;;;;5.75;3.30;;;;;;;;;;6181852;28;20046;-68
2021/07/19 12:39:07;;;;;;;3.90;3.20;;;;;;;;;;6208206;28;20124;-66
2021/07/19 12:42:12;;;;;;;5.28;2.95;;;;;;;;;;6186050;28;20101;-67
2021/07/19 12:45:15;;;;;;;4.45;3.30;;;;;;;;;;6190333;28;20057;-70
2021/07/19 12:48:17;;;;;;;5.22;3.10;;;;;;;;;;6181835;28;20058;-69
2021/07/19 12:51:25;;;;;;;3.63;3.17;;;;;;;;;;6181632;28;20050;-68
2021/07/19 12:54:28;;;;;;;3.00;2.70;;;;;;;;;;6191313;28;20074;-67
2021/07/19 12:57:33;;;;;;;6.22;3.10;;;;;;;;;;6186074;28;20046;-70
2021/07/19 13:00:35;;;;;;;4.88;2.97;;;;;;;;;;6182729;28;20069;-67
2021/07/19 13:03:37;;;;;;;6.00;2.97;;;;;;;;;;6172596;28;20054;-67
2021/07/19 13:06:40;;;;;;;4.63;2.92;;;;;;;;;;6184793;28;20054;-70
2021/07/19 13:09:42;;;;;;;4.18;2.90;;;;;;;;;;6191381;28;20079;-66
2021/07/19 13:12:51;;;;;;;5.95;3.65;;;;;;;;;;6183734;28;20043;-66
2021/07/19 13:15:59;;;;;;;4.60;3.05;;;;;;;;;;6182323;28;20039;-67
2021/07/19 13:19:01;;;;;;;5.05;3.00;;;;;;;;;;6187999;28;20047;-67
2021/07/19 13:22:04;;;;;;;6.03;3.45;;;;;;;;;;6183478;28;20058;-70
2021/07/19 13:25:11;;;;;;;4.53;2.90;;;;;;;;;;6192305;28;20189;-70
2021/07/19 13:28:15;;;;;;;3.70;2.85;;;;;;;;;;6184472;28;20114;-69
2021/07/19 13:31:20;;;;;;;3.13;2.60;;;;;;;;;;6182052;28;20046;-69
2021/07/19 13:34:22;;;;;;;3.53;2.80;;;;;;;;;;6184730;28;20137;-68
2021/07/19 13:37:24;;;;;;;4.57;3.22;;;;;;;;;;6183822;28;20058;-73
2021/07/19 13:40:26;;;;;;;5.07;3.13;;;;;;;;;;6185029;28;20113;-71
2021/07/19 13:43:29;;;;;;;4.63;2.83;;;;;;;;;;6191205;28;20069;-67
2021/07/19 13:46:31;;;;;;;4.88;3.30;;;;;;;;;;6180854;28;20065;-72
2021/07/19 13:49:33;;;;;;;4.00;3.00;;;;;;;;;;6183236;28;20162;-66
2021/07/19 13:52:35;;;;;;;5.40;3.38;;;;;;;;;;6181629;28;20054;-70
2021/07/19 13:55:38;;;;;;;3.55;2.92;;;;;;;;;;6185828;28;20045;-67
2021/07/19 13:58:43;;;;;;;5.50;3.00;;;;;;;;;;6187814;28;20411;-67
2021/07/19 14:01:46;;;;;;;6.35;3.65;;;;;;;;;;6179177;28;20077;-68
2021/07/19 14:04:48;;;;;;;5.40;3.35;;;;;;;;;;6187805;28;20061;-66
2021/07/19 14:07:50;;;;;;;4.90;3.40;;;;;;;;;;6184139;28;20050;-66
2021/07/19 14:10:53;;;;;;;5.22;3.10;;;;;;;;;;6175785;28;20136;-66
2021/07/19 14:13:56;;;;;;;5.85;3.33;;;;;;;;;;6187038;28;20133;-66
2021/07/19 14:16:58;;;;;;;5.85;3.20;;;;;;;;;;6171002;28;20042;-70
2021/07/19 14:20:00;;;;;;;;;;;;;;;;;;6184822;28;20042;-69
2021/07/19 14:23:02;;;;;;;7.55;2.92;;;;;;;;;;6174441;28;19969;-70
2021/07/19 14:26:04;;;;;;;4.85;2.80;;;;;;;;;;6179466;28;20051;-67
2021/07/19 14:29:08;;;;;;;6.30;3.40;;;;;;;;;;6186618;28;20145;-65
2021/07/19 14:32:10;;;;;;;4.70;2.88;;;;;;;;;;6176346;28;20058;-67
2021/07/19 14:35:13;;;;;;;3.70;2.90;;;;;;;;;;6184276;28;20062;-69
2021/07/19 14:38:15;;;;;;;5.10;2.83;;;;;;;;;;6181376;28;20046;-70
2021/07/19 14:41:17;;;;;;;5.63;2.72;;;;;;;;;;6185369;28;20177;-70
2021/07/19 14:44:21;;;;;;;5.43;2.90;;;;;;;;;;6190129;28;20046;-66
2021/07/19 14:47:26;;;;;;;5.68;2.80;;;;;;;;;;6176005;28;20053;-66
2021/07/19 14:50:28;;;;;;;7.05;3.28;;;;;;;;;;6180658;28;20051;-73
2021/07/19 14:53:33;;;;;;;;;;;;;;;;;;6188556;28;20078;-66
2021/07/19 14:56:38;;;;;;;6.00;3.10;;;;;;;;;;6183278;28;20376;-67
2021/07/19 14:59:41;;;;;;;7.68;3.03;;;;;;;;;;6188569;28;20110;-71
2021/07/19 15:02:43;;;;;;;6.50;2.92;;;;;;;;;;6178418;28;20048;-67
2021/07/19 15:05:45;;;;;;;4.55;3.00;;;;;;;;;;6179833;28;20402;-70
2021/07/19 15:08:47;;;;;;;5.53;3.33;;;;;;;;;;6187927;28;20092;-67
2021/07/19 15:11:48;;;;;;;3.80;2.67;;;;;;;;;;6183755;28;20050;-65
2021/07/19 15:14:52;;;;;;;6.68;3.42;;;;;;;;;;6152040;28;20050;-65
2021/07/19 15:17:54;;;;;;;5.25;3.15;;;;;;;;;;6178442;28;20057;-67
2021/07/19 15:20:56;;;;;;;7.90;3.30;;;;;;;;;;6178911;28;20054;-68
2021/07/19 15:23:58;;;;;;;;;;;;;;;;;;6194129;28;20045;-69
2021/07/19 15:27:00;;;;;;;4.82;2.97;;;;;;;;;;6181229;28;19921;-66
2021/07/19 15:30:06;;;;;;;4.07;3.15;;;;;;;;;;6190638;28;20539;-68
2021/07/19 15:33:07;;;;;;;4.00;2.70;;;;;;;;;;6180183;28;20046;-67
2021/07/19 15:36:10;;;;;;;5.78;3.03;;;;;;;;;;6182004;28;20109;-67
2021/07/19 15:39:11;;;;;;;6.78;2.90;;;;;;;;;;6186693;28;20072;-66
2021/07/19 15:42:13;;;;;;;6.82;2.90;;;;;;;;;;6180883;28;20095;-72
2021/07/19 15:45:17;;;;;;;7.72;3.13;;;;;;;;;;6186574;28;20046;-71
2021/07/19 15:48:19;;;;;;;4.05;2.67;;;;;;;;;;6179970;28;20425;-75
2021/07/19 15:51:21;;;;;;;7.80;3.13;;;;;;;;;;6181123;28;20058;-66
2021/07/19 15:54:23;;;;;;;5.68;3.03;;;;;;;;;;6186261;28;20136;-66
2021/07/19 15:57:28;;;;;;;7.13;2.90;;;;;;;;;;6185092;28;20216;-66
2021/07/19 16:00:31;;;;;;;6.10;2.85;;;;;;;;;;6186838;28;20046;-70
2021/07/19 16:03:34;;;;;;;5.68;2.80;;;;;;;;;;6185901;28;20061;-67
2021/07/19 16:06:36;;;;;;;8.50;2.75;;;;;;;;;;6179109;28;20055;-68
2021/07/19 16:09:37;;;;;;;4.90;2.80;;;;;;;;;;6186761;28;20077;-67
2021/07/19 16:12:39;;;;;;;3.85;3.05;;;;;;;;;;6185834;28;20046;-65
2021/07/19 16:15:43;;;;;;;4.93;2.70;;;;;;;;;;6188315;28;20073;-70
2021/07/19 16:18:49;;;;;;;6.60;2.90;;;;;;;;;;6188220;28;20042;-66
2021/07/19 16:21:52;;;;;;;5.95;2.90;;;;;;;;;;6174626;28;20178;-66
2021/07/19 16:25:02;;;;;;;5.47;3.15;;;;;;;;;;6186876;28;20407;-65
2021/07/19 16:28:11;;;;;;;4.32;3.15;;;;;;;;;;6163804;28;20043;-67
2021/07/19 16:31:14;;;;;;;5.30;3.15;;;;;;;;;;6159003;28;20126;-67
2021/07/19 16:34:16;;;;;;;8.13;3.00;;;;;;;;;;6161485;28;20075;-69
2021/07/19 16:37:18;;;;;;;4.20;2.87;;;;;;;;;;6138506;28;20047;-67
2021/07/19 16:40:20;;;;;;;5.50;3.40;;;;;;;;;;6144716;28;20503;-69
2021/07/19 16:43:22;;;;;;;5.32;2.80;;;;;;;;;;6148810;28;20051;-66
2021/07/19 16:46:25;;;;;;;8.02;3.25;;;;;;;;;;6132204;28;20103;-67
2021/07/19 16:49:28;;;;;;;9.63;3.42;;;;;;;;;;6147199;28;20054;-67
2021/07/19 16:52:29;;;;;;;8.23;3.72;;;;;;;;;;6155436;28;20480;-68
2021/07/19 16:55:31;;;;;;;7.55;3.33;;;;;;;;;;6143567;28;20043;-71
2021/07/19 16:58:33;;;;;;;7.60;3.30;;;;;;;;;;6147342;28;20740;-66
2021/07/19 17:01:37;;;;;;;8.32;2.85;;;;;;;;;;6134155;28;20195;-66
2021/07/19 17:04:38;;;;;;;4.00;3.30;;;;;;;;;;6146302;28;20059;-65
2021/07/19 17:07:41;;;;;;;7.03;3.13;;;;;;;;;;6138261;28;20142;-66
2021/07/19 17:10:43;;;;;;;5.40;3.35;;;;;;;;;;6142421;28;20039;-66
2021/07/19 17:13:45;;;;;;;8.18;3.35;;;;;;;;;;6148094;28;20051;-66
2021/07/19 17:16:48;;;;;;;8.00;3.03;;;;;;;;;;6136504;28;20490;-67
2021/07/19 17:19:50;;;;;;;5.93;3.50;;;;;;;;;;6145783;28;20507;-66
2021/07/19 17:23:08;;;;;;;5.03;3.38;;;;;;;;;;6139540;28;20051;-67
2021/07/19 17:26:10;;;;;;;5.93;3.30;;;;;;;;;;6130067;28;20054;-67
2021/07/19 17:29:12;;;;;;;7.13;3.45;;;;;;;;;;6158530;28;20178;-67
2021/07/19 17:32:15;;;;;;;8.35;3.47;;;;;;;;;;6134244;28;20047;-71
2021/07/19 17:35:28;;;;;;;7.47;3.40;;;;;;;;;;6149673;28;20054;-71
2021/07/19 17:38:32;;;;;;;9.25;3.85;;;;;;;;;;6171070;28;20050;-67
2021/07/19 17:41:36;;;;;;;8.57;3.67;;;;;;;;;;6162320;28;20050;-66
2021/07/19 17:44:42;;;;;;;7.22;3.75;;;;;;;;;;6170615;28;20296;-65
2021/07/19 17:47:45;;;;;;;8.93;3.60;;;;;;;;;;6159103;28;20054;-67
2021/07/19 17:50:47;;;;;;;8.18;3.85;;;;;;;;;;6163334;28;20042;-67
2021/07/19 17:53:49;;;;;;;7.13;4.27;;;;;;;;;;6168479;28;20462;-66
2021/07/19 17:56:51;;;;;;;9.47;3.60;;;;;;;;;;6164918;28;20049;-66
2021/07/19 17:59:53;;;;;;;6.53;3.38;;;;;;;;;;6167119;28;20054;-67
2021/07/19 18:02:57;;;;;;;8.60;3.67;;;;;;;;;;6150044;28;20051;-68
2021/07/19 18:05:59;;;;;;;8.43;3.45;;;;;;;;;;6158261;28;20481;-66
2021/07/19 18:09:01;;;;;;;12.73;3.72;;;;;;;;;;6160989;28;20042;-68
2021/07/19 18:12:04;;;;;;;6.60;3.90;;;;;;;;;;6167598;28;20050;-65
2021/07/19 18:15:06;;;;;;;;;;;;;;;;;;6167158;28;20554;-70
2021/07/19 18:18:09;;;;;;;8.93;4.13;;;;;;;;;;6152519;28;19937;-65
2021/07/19 18:21:12;;;;;;;9.85;4.05;;;;;;;;;;6153558;28;20125;-69
2021/07/19 18:24:18;;;;;;;;;;;;;;;;;;6164659;28;20427;-68
2021/07/19 18:30:43;;;;;;;11.32;3.65;;;;;;;;;;6146110;28;20133;-72
2021/07/19 18:33:46;;;;;;;8.98;4.07;;;;;;;;;;6160962;28;20059;-66
2021/07/19 18:36:48;;;;;;;6.10;3.47;;;;;;;;;;6155452;28;20050;-67
2021/07/19 18:39:49;;;;;;;6.10;3.50;;;;;;;;;;6183714;28;20415;-66
2021/07/19 18:42:52;;;;;;;6.25;3.42;;;;;;;;;;6179374;28;20066;-66
2021/07/19 18:45:56;;;;;;;5.72;4.30;;;;;;;;;;6163013;28;20062;-67
2021/07/19 18:48:59;;;;;;;8.15;3.78;;;;;;;;;;6161354;28;20043;-66
2021/07/19 18:52:01;;;;;;;10.82;4.13;;;;;;;;;;6159589;28;20054;-67
2021/07/19 18:58:21;;;;;;;8.05;3.67;;;;;;;;;;6142858;28;20074;-67
2021/07/19 19:01:22;;;;;;;8.00;3.60;;;;;;;;;;6157223;28;20043;-66
2021/07/19 19:04:35;;;;;;;10.25;4.25;;;;;;;;;;6167030;28;20419;-67
2021/07/19 19:07:38;;;;;;;12.05;4.18;;;;;;;;;;6146030;28;20075;-66
2021/07/19 19:10:40;;;;;;;9.85;4.43;;;;;;;;;;6151029;28;20049;-66
2021/07/19 19:13:41;;;;;;;7.78;3.65;;;;;;;;;;6162600;28;20467;-67
2021/07/19 19:16:43;;;;;;;6.28;3.80;;;;;;;;;;6160177;28;20117;-69
2021/07/19 19:19:47;;;;;;;9.30;4.20;;;;;;;;;;6189275;28;20121;-65
2021/07/19 19:22:50;;;;;;;8.85;3.78;;;;;;;;;;6163350;28;20478;-66
2021/07/19 19:25:52;;;;;;;8.35;3.95;;;;;;;;;;6184329;28;20494;-65
2021/07/19 19:28:54;;;;;;;7.43;3.70;;;;;;;;;;6190733;28;20053;-65
2021/07/19 19:31:56;;;;;;;10.27;5.23;;;;;;;;;;6159621;28;20066;-69
2021/07/19 19:34:59;;;;;;;12.57;6.03;;;;;;;;;;6163557;28;20051;-71
2021/07/19 19:38:01;;;;;;;9.85;4.65;;;;;;;;;;6157100;28;20054;-68
2021/07/19 19:41:03;;;;;;;11.23;4.05;;;;;;;;;;6155540;28;20047;-67
2021/07/19 19:44:06;;;;;;;9.33;4.67;;;;;;;;;;6166415;28;20047;-65
2021/07/19 19:47:08;;;;;;;;;;;;;;;;;;6154486;28;20061;-66
2021/07/19 19:50:13;;;;;;;8.00;3.92;;;;;;;;;;6175335;28;20121;-65
2021/07/19 19:53:16;;;;;;;8.55;3.60;;;;;;;;;;6185943;28;20058;-68
2021/07/19 19:56:18;;;;;;;7.85;3.72;;;;;;;;;;6163375;28;20484;-65
2021/07/19 19:59:21;;;;;;;6.20;3.77;;;;;;;;;;6165470;28;20166;-66
2021/07/19 20:02:23;;;;;;;7.22;3.90;;;;;;;;;;6157326;28;20050;-66
2021/07/19 20:05:27;;;;;;;7.78;4.13;;;;;;;;;;6156695;28;20058;-69
2021/07/19 20:08:29;;;;;;;11.15;4.13;;;;;;;;;;6154309;28;20051;-67
2021/07/19 20:11:31;;;;;;;8.40;4.03;;;;;;;;;;6154213;28;20055;-72
2021/07/19 20:14:33;;;;;;;10.52;4.40;;;;;;;;;;6184038;28;20137;-68
2021/07/19 20:17:35;;;;;;;8.38;3.80;;;;;;;;;;6178415;28;20113;-66
2021/07/19 20:20:39;;;;;;;6.93;3.80;;;;;;;;;;6178557;28;20050;-66
2021/07/19 20:23:41;;;;;;;7.85;4.45;;;;;;;;;;6186369;28;20057;-66
2021/07/19 20:26:43;;;;;;;15.77;4.63;;;;;;;;;;6180198;28;20035;-65
2021/07/19 20:29:45;;;;;;;17.83;4.90;;;;;;;;;;6187764;28;20065;-68
2021/07/19 20:32:47;;;;;;;8.70;4.10;;;;;;;;;;6175535;28;20057;-67
2021/07/19 20:35:51;;;;;;;11.93;4.50;;;;;;;;;;6179622;28;20464;-66
2021/07/19 20:38:53;;;;;;;13.65;4.80;;;;;;;;;;6170488;28;20053;-65
2021/07/19 20:41:55;;;;;;;13.43;4.50;;;;;;;;;;6177961;28;20105;-69
2021/07/19 20:44:57;;;;;;;7.25;4.65;;;;;;;;;;6164698;28;20106;-65
2021/07/19 20:48:01;;;;;;;12.30;5.50;;;;;;;;;;6159633;28;20046;-65
2021/07/19 20:51:09;;;;;;;10.30;6.50;;;;;;;;;;6179178;28;20045;-67
2021/07/19 20:54:12;;;;;;;10.35;5.50;;;;;;;;;;6191345;28;20056;-66
2021/07/19 20:57:13;;;;;;;14.50;6.18;;;;;;;;;;6177578;28;20050;-66
2021/07/19 21:00:16;;;;;;;11.43;4.53;;;;;;;;;;6185893;28;20094;-70
2021/07/19 21:03:19;;;;;;;8.85;4.60;;;;;;;;;;6183034;28;20057;-69
2021/07/19 21:06:23;;;;;;;11.05;5.38;;;;;;;;;;6177395;28;20129;-67
2021/07/19 21:09:25;;;;;;;7.10;4.82;;;;;;;;;;6182201;28;20165;-67
2021/07/19 21:12:27;;;;;;;10.93;6.87;;;;;;;;;;6184121;28;20050;-67
2021/07/19 21:15:29;;;;;;;13.45;5.60;;;;;;;;;;6184961;28;21084;-64
2021/07/19 21:18:31;;;;;;;28.05;7.25;;;;;;;;;;6178333;28;20053;-67
2021/07/19 21:21:34;;;;;;;13.40;5.47;;;;;;;;;;6156579;28;20070;-66
2021/07/19 21:24:36;;;;;;;13.82;5.15;;;;;;;;;;6164984;28;20045;-66
2021/07/19 21:27:38;;;;;;;10.75;5.50;;;;;;;;;;6160092;28;20075;-64
2021/07/19 21:30:40;;;;;;;16.55;6.93;;;;;;;;;;6166653;28;20054;-64
2021/07/19 21:33:43;;;;;;;12.63;5.80;;;;;;;;;;6187459;28;20136;-64
2021/07/19 21:36:46;;;;;;;16.03;6.80;;;;;;;;;;6160681;28;20627;-65
2021/07/19 21:39:48;;;;;;;12.30;5.75;;;;;;;;;;6165887;28;20043;-64
2021/07/19 21:42:49;;;;;;;10.70;5.25;;;;;;;;;;6157702;28;20491;-64
2021/07/19 21:45:51;;;;;;;9.13;5.57;;;;;;;;;;6173054;28;20474;-64
2021/07/19 21:48:53;;;;;;;10.65;5.63;;;;;;;;;;6160327;28;20086;-65
2021/07/19 21:51:56;;;;;;;33.07;11.80;;;;;;;;;;6174210;28;20050;-64
2021/07/19 21:54:58;;;;;;;15.98;7.25;;;;;;;;;;6165723;28;21188;-64
2021/07/19 21:58:00;;;;;;;12.68;6.10;;;;;;;;;;6158971;28;20137;-64
2021/07/19 22:01:02;;;;;;;13.93;6.90;;;;;;;;;;6156157;28;20106;-67
2021/07/19 22:04:04;;;;;;;19.13;6.27;;;;;;;;;;6171632;28;20055;-64
2021/07/19 22:07:08;;;;;;;11.27;4.85;;;;;;;;;;6158823;28;20522;-64
2021/07/19 22:10:12;;;;;;;12.02;5.50;;;;;;;;;;6161922;28;20423;-64
2021/07/19 22:13:13;;;;;;;12.43;5.95;;;;;;;;;;6164548;28;20038;-64